Terminal Aerodrome Forecast
Issued by NWS

Home | Current Version | Previous Version | Text Only | Print | Product List | Glossary On
Versions: 1 2 3 4 5 6 7 8 9 10 11 12
000
FTUS46 KSEW 221120
TAFOLM
TAF
KOLM 221120Z 2212/2312 VRB03KT P6SM SKC
     FM221900 22006KT P6SM SKC
     FM230000 24008KT P6SM SCT250
     FM230600 20006KT P6SM BKN200
     FM230900 VRB03KT P6SM BKN020=

USA.gov is the U.S. government's official web portal to all federal, state and local government web resources and services.